createdAt,value
2023-02-19T00:01:24.837Z,1.50
2023-02-19T00:03:58.196Z,2.25
2023-02-19T00:06:27.499Z,1.40
2023-02-19T00:08:54.548Z,1.10
2023-02-19T00:11:23.868Z,0.98
2023-02-19T00:13:53.227Z,1.33
2023-02-19T00:16:23.194Z,1.30
2023-02-19T00:18:50.307Z,1.40
2023-02-19T00:21:17.599Z,1.33
2023-02-19T00:23:48.133Z,1.15
2023-02-19T00:26:18.611Z,2.75
2023-02-19T00:28:46.885Z,1.15
2023-02-19T00:31:19.471Z,1.10
2023-02-19T00:33:47.502Z,0.95
2023-02-19T00:36:15.160Z,1.65
2023-02-19T00:38:43.506Z,1.35
2023-02-19T00:41:20.681Z,3.17
2023-02-19T00:43:54.036Z,1.27
2023-02-19T00:46:26.968Z,1.00
2023-02-19T00:48:54.300Z,1.25
2023-02-19T00:51:23.201Z,1.02
2023-02-19T00:53:50.045Z,1.33
2023-02-19T00:56:17.380Z,0.82
2023-02-19T00:58:44.220Z,1.55
2023-02-19T01:01:11.897Z,1.30
2023-02-19T01:03:39.672Z,1.20
2023-02-19T01:06:07.649Z,1.67
2023-02-19T01:08:34.754Z,1.30
2023-02-19T01:11:02.561Z,1.98
2023-02-19T01:13:29.400Z,1.30
2023-02-19T01:16:12.656Z,1.20
2023-02-19T01:18:39.952Z,1.42
2023-02-19T01:21:13.749Z,1.30
2023-02-19T01:23:40.606Z,1.63
2023-02-19T01:26:09.070Z,1.83
2023-02-19T01:28:35.989Z,1.00
2023-02-19T01:31:08.268Z,2.92
2023-02-19T01:33:35.317Z,1.30
2023-02-19T01:36:06.107Z,1.20
2023-02-19T01:38:33.191Z,1.10
2023-02-19T01:41:05.366Z,1.10
2023-02-19T01:43:33.910Z,1.50
2023-02-19T01:46:01.210Z,1.30
2023-02-19T01:48:33.469Z,1.30
2023-02-19T01:51:09.744Z,1.90
2023-02-19T01:53:47.345Z,1.60
2023-02-19T01:56:15.994Z,0.93
2023-02-19T01:58:43.171Z,1.40
2023-02-19T02:01:10.338Z,1.63
2023-02-19T02:03:38.875Z,2.28
2023-02-19T02:06:19.048Z,1.95
2023-02-19T02:09:04.436Z,1.40
2023-02-19T02:11:31.227Z,2.20
2023-02-19T02:13:59.032Z,1.50
2023-02-19T02:16:33.032Z,1.15
2023-02-19T02:19:27.109Z,0.90
2023-02-19T02:21:59.528Z,0.70
2023-02-19T02:25:00.470Z,1.50
2023-02-19T02:27:52.537Z,1.40
2023-02-19T02:30:34.528Z,1.13
2023-02-19T02:33:39.651Z,1.27
2023-02-19T02:36:24.657Z,1.70
2023-02-19T02:38:54.105Z,1.35
2023-02-19T02:41:21.246Z,1.00
2023-02-19T02:43:47.895Z,1.23
2023-02-19T02:46:20.248Z,0.90
2023-02-19T02:48:55.452Z,0.90
2023-02-19T02:51:36.308Z,0.75
2023-02-19T02:54:47.352Z,2.10
2023-02-19T02:57:15.279Z,1.13
2023-02-19T02:59:43.125Z,1.48
2023-02-19T03:02:24.833Z,1.10
2023-02-19T03:05:25.925Z,1.02
2023-02-19T03:08:01.197Z,0.70
2023-02-19T03:10:47.391Z,0.65
2023-02-19T03:13:54.723Z,0.82
2023-02-19T03:16:47.310Z,0.70
2023-02-19T03:19:19.062Z,0.60
2023-02-19T03:21:59.911Z,0.40
2023-02-19T03:24:53.869Z,0.47
2023-02-19T03:27:21.944Z,0.70
2023-02-19T03:29:51.907Z,0.70
2023-02-19T03:32:27.565Z,0.40
2023-02-19T03:35:13.470Z,0.85
2023-02-19T03:38:03.810Z,0.40
2023-02-19T03:40:34.748Z,0.57
2023-02-19T03:43:11.962Z,0.30
2023-02-19T03:45:50.340Z,0.32
2023-02-19T03:48:35.984Z,0.30
2023-02-19T03:51:13.977Z,0.30
2023-02-19T03:53:49.568Z,1.27
2023-02-19T03:56:31.297Z,0.30
2023-02-19T03:59:05.610Z,0.38
2023-02-19T04:01:53.856Z,0.65
2023-02-19T04:04:29.283Z,0.20
2023-02-19T04:06:57.567Z,0.28
2023-02-19T04:09:28.823Z,0.20
2023-02-19T04:11:56.046Z,0.30
2023-02-19T04:14:28.957Z,0.30
2023-02-19T04:17:01.992Z,0.45
2023-02-19T04:19:32.972Z,0.35
2023-02-19T04:22:01.525Z,1.88
2023-02-19T04:24:34.700Z,0.20
2023-02-19T04:27:02.557Z,0.20
2023-02-19T04:29:29.230Z,0.57
2023-02-19T04:31:55.988Z,0.52
2023-02-19T04:34:22.785Z,0.30
2023-02-19T04:36:49.607Z,0.30
2023-02-19T04:39:16.325Z,1.10
2023-02-19T04:41:42.954Z,0.20
2023-02-19T04:44:09.753Z,0.30
2023-02-19T04:46:36.413Z,0.52
2023-02-19T04:49:03.791Z,0.30
2023-02-19T04:51:30.458Z,0.17
2023-02-19T04:53:57.108Z,0.20
2023-02-19T04:56:23.835Z,0.30
2023-02-19T04:58:50.515Z,0.30
2023-02-19T05:01:17.694Z,1.00
2023-02-19T05:03:44.548Z,0.30
2023-02-19T05:06:13.352Z,0.10
2023-02-19T05:08:40.626Z,0.38
2023-02-19T05:11:10.778Z,0.35
2023-02-19T05:13:38.252Z,1.88
2023-02-19T05:16:07.946Z,0.20
2023-02-19T05:18:34.926Z,0.20
2023-02-19T05:21:02.249Z,0.30
2023-02-19T05:23:29.089Z,0.10
2023-02-19T05:25:55.923Z,0.10
2023-02-19T05:28:28.631Z,0.20
2023-02-19T05:30:56.849Z,0.30
2023-02-19T05:33:25.644Z,0.20
2023-02-19T05:35:55.891Z,0.30
2023-02-19T05:38:23.799Z,0.30
2023-02-19T05:40:51.229Z,0.25
2023-02-19T05:43:18.252Z,0.30
2023-02-19T05:45:44.949Z,0.40
2023-02-19T05:48:12.850Z,1.65
2023-02-19T05:50:39.997Z,0.30
2023-02-19T05:53:06.820Z,0.30
2023-02-19T05:55:36.586Z,0.85
2023-02-19T05:58:03.955Z,0.35
2023-02-19T06:00:32.593Z,0.30
2023-02-19T06:02:59.417Z,0.20
2023-02-19T06:05:26.137Z,0.20
2023-02-19T06:07:52.848Z,0.30
2023-02-19T06:10:19.649Z,0.73
2023-02-19T06:12:46.374Z,0.20
2023-02-19T06:15:13.076Z,0.30
2023-02-19T06:17:39.804Z,0.10
2023-02-19T06:20:07.616Z,0.47
2023-02-19T06:22:34.320Z,0.20
2023-02-19T06:25:01.063Z,0.20
2023-02-19T06:27:28.165Z,0.30
2023-02-19T06:29:54.895Z,0.43
2023-02-19T06:32:21.816Z,1.30
2023-02-19T06:34:48.672Z,0.20
2023-02-19T06:37:15.316Z,0.22
2023-02-19T06:39:41.951Z,0.30
2023-02-19T06:42:08.719Z,0.40
2023-02-19T06:44:35.448Z,0.90
2023-02-19T06:47:02.122Z,1.10
2023-02-19T06:49:28.944Z,0.90
2023-02-19T06:51:55.805Z,0.60
2023-02-19T06:54:22.590Z,0.40
2023-02-19T06:56:49.313Z,0.25
2023-02-19T06:59:16.937Z,0.35
2023-02-19T07:01:44.848Z,0.55
2023-02-19T07:04:11.600Z,0.63
2023-02-19T07:06:38.792Z,0.30
2023-02-19T07:09:07.885Z,0.13
2023-02-19T07:11:36.010Z,0.40
2023-02-19T07:14:05.081Z,0.40
2023-02-19T07:16:31.977Z,0.55
2023-02-19T07:18:59.910Z,0.68
2023-02-19T07:21:27.528Z,1.20
2023-02-19T07:23:54.328Z,0.38
2023-02-19T07:26:21.811Z,3.53
2023-02-19T07:28:49.795Z,5.22
2023-02-19T07:31:18.428Z,6.50
2023-02-19T07:33:46.400Z,1.75
2023-02-19T07:36:14.658Z,1.33
2023-02-19T07:38:41.334Z,2.13
2023-02-19T07:41:08.740Z,0.30
2023-02-19T07:43:37.515Z,0.73
2023-02-19T07:46:06.007Z,0.32
2023-02-19T07:48:34.221Z,0.40
2023-02-19T07:51:01.431Z,0.30
2023-02-19T07:53:28.634Z,0.22
2023-02-19T07:56:06.250Z,0.30
2023-02-19T07:58:34.399Z,0.28
2023-02-19T08:01:40.941Z,0.50
2023-02-19T08:04:08.097Z,0.60
2023-02-19T08:06:34.817Z,0.65
2023-02-19T08:09:01.457Z,0.40
2023-02-19T08:11:46.529Z,0.35
2023-02-19T08:14:13.257Z,0.30
2023-02-19T08:16:43.254Z,0.52
2023-02-19T08:19:10.294Z,0.30
2023-02-19T08:21:36.969Z,0.80
2023-02-19T08:24:03.898Z,0.77
2023-02-19T08:26:30.812Z,1.10
2023-02-19T08:28:58.921Z,1.38
2023-02-19T08:31:25.817Z,0.57
2023-02-19T08:33:52.700Z,1.05
2023-02-19T08:36:19.408Z,0.45
2023-02-19T08:38:46.088Z,0.95
2023-02-19T08:41:14.140Z,0.52
2023-02-19T08:43:41.922Z,0.65
2023-02-19T08:46:10.175Z,0.50
2023-02-19T08:48:38.275Z,0.40
2023-02-19T08:51:08.529Z,0.60
2023-02-19T08:53:37.313Z,0.50
2023-02-19T08:56:12.768Z,0.65
2023-02-19T08:58:40.518Z,0.70
2023-02-19T09:01:13.035Z,0.55
2023-02-19T09:03:40.469Z,0.55
2023-02-19T09:06:07.841Z,0.77
2023-02-19T09:08:34.675Z,0.93
2023-02-19T09:11:03.469Z,0.32
2023-02-19T09:13:30.414Z,0.47
2023-02-19T09:15:57.362Z,0.70
2023-02-19T09:18:25.203Z,0.65
2023-02-19T09:20:51.922Z,1.40
2023-02-19T09:23:18.650Z,0.60
2023-02-19T09:25:45.419Z,0.70
2023-02-19T09:28:12.192Z,0.63
2023-02-19T09:30:38.988Z,1.10
2023-02-19T09:33:06.080Z,0.82
2023-02-19T09:35:32.718Z,0.82
2023-02-19T09:38:01.918Z,0.75
2023-02-19T09:40:30.336Z,0.57
2023-02-19T09:42:57.438Z,0.70
2023-02-19T09:45:26.261Z,0.63
2023-02-19T09:47:55.682Z,1.10
2023-02-19T09:50:37.268Z,1.77
2023-02-19T09:53:12.918Z,0.90
2023-02-19T09:55:42.498Z,0.80
2023-02-19T09:58:18.482Z,0.70
2023-02-19T10:00:49.450Z,1.40
2023-02-19T10:03:22.034Z,0.88
2023-02-19T10:05:49.334Z,0.63
2023-02-19T10:08:20.615Z,0.60
2023-02-19T10:10:47.311Z,0.90
2023-02-19T10:13:21.711Z,1.08
2023-02-19T10:15:54.657Z,1.15
2023-02-19T10:18:24.982Z,0.80
2023-02-19T10:20:53.249Z,1.33
2023-02-19T10:23:20.231Z,1.13
2023-02-19T10:25:50.626Z,2.33
2023-02-19T10:28:20.315Z,3.53
2023-02-19T10:30:54.199Z,1.52
2023-02-19T10:33:21.134Z,2.00
2023-02-19T10:35:54.808Z,1.40
2023-02-19T10:38:34.102Z,1.20
2023-02-19T10:41:17.497Z,2.35
2023-02-19T10:44:07.780Z,1.08
2023-02-19T10:46:45.671Z,1.25
2023-02-19T10:49:28.082Z,1.30
2023-02-19T10:51:56.369Z,2.55
2023-02-19T10:54:31.233Z,1.20
2023-02-19T10:57:18.930Z,2.65
2023-02-19T10:59:57.724Z,1.40
2023-02-19T11:02:25.819Z,1.38
2023-02-19T11:05:07.225Z,1.40
2023-02-19T11:07:34.457Z,1.05
2023-02-19T11:10:01.658Z,1.40
2023-02-19T11:12:30.859Z,1.98
2023-02-19T11:15:22.396Z,2.83
2023-02-19T11:18:14.673Z,1.15
2023-02-19T11:21:02.789Z,1.52
2023-02-19T11:23:38.396Z,3.20
2023-02-19T11:26:07.194Z,1.58
2023-02-19T11:28:38.979Z,2.40
2023-02-19T11:31:32.038Z,1.92
2023-02-19T11:33:59.946Z,1.67
2023-02-19T11:36:30.474Z,1.60
2023-02-19T11:39:02.530Z,3.22
2023-02-19T11:41:38.035Z,2.60
2023-02-19T11:44:32.067Z,1.58
2023-02-19T11:47:01.904Z,1.67
2023-02-19T11:49:57.866Z,1.58
2023-02-19T11:52:42.072Z,2.03
2023-02-19T11:55:32.065Z,1.38
2023-02-19T11:58:40.636Z,1.90
2023-02-19T12:01:26.040Z,2.85
2023-02-19T12:04:08.706Z,1.92
2023-02-19T12:06:50.380Z,1.33
2023-02-19T12:09:35.238Z,1.98
2023-02-19T12:12:22.516Z,1.30
2023-02-19T12:15:15.488Z,2.38
2023-02-19T12:18:16.649Z,2.67
2023-02-19T12:21:14.102Z,3.08
2023-02-19T12:23:53.699Z,3.10
2023-02-19T12:26:27.414Z,1.83
2023-02-19T12:29:22.435Z,1.48
2023-02-19T12:32:07.657Z,2.67
2023-02-19T12:35:16.853Z,1.60
2023-02-19T12:38:16.307Z,2.92
2023-02-19T12:41:01.248Z,1.50
2023-02-19T12:43:31.842Z,2.83
2023-02-19T12:46:06.850Z,3.50
2023-02-19T12:48:58.893Z,1.30
2023-02-19T12:51:34.050Z,3.17
2023-02-19T12:54:16.864Z,2.03
2023-02-19T12:57:03.908Z,0.88
2023-02-19T12:59:33.710Z,1.27
2023-02-19T13:02:15.171Z,2.47
2023-02-19T13:05:03.592Z,2.42
2023-02-19T13:07:55.488Z,1.80
2023-02-19T13:10:43.474Z,2.33
2023-02-19T13:13:38.504Z,2.97
2023-02-19T13:16:19.062Z,2.85
2023-02-19T13:18:52.421Z,2.35
2023-02-19T13:21:41.061Z,2.28
2023-02-19T13:24:14.209Z,1.73
2023-02-19T13:27:12.228Z,3.60
2023-02-19T13:29:56.189Z,3.45
2023-02-19T13:32:45.675Z,3.17
2023-02-19T13:35:37.437Z,3.22
2023-02-19T13:40:35.377Z,3.10
2023-02-19T13:43:07.813Z,2.15
2023-02-19T13:45:38.286Z,2.25
2023-02-19T13:48:24.022Z,2.03
2023-02-19T13:51:11.258Z,1.75
2023-02-19T13:53:41.525Z,4.03
2023-02-19T13:56:40.633Z,0.95
2023-02-19T13:59:37.122Z,1.75
2023-02-19T14:02:03.771Z,5.68
2023-02-19T14:05:00.059Z,2.65
2023-02-19T14:07:26.701Z,2.47
2023-02-19T14:09:54.335Z,2.13
2023-02-19T14:12:30.329Z,2.50
2023-02-19T14:14:57.638Z,4.15
2023-02-19T14:17:41.807Z,2.78
2023-02-19T14:20:17.533Z,2.95
2023-02-19T14:22:52.886Z,2.65
2023-02-19T14:25:58.246Z,3.90
2023-02-19T14:28:33.505Z,2.55
2023-02-19T14:31:08.715Z,2.63
2023-02-19T14:33:43.616Z,2.40
2023-02-19T14:36:27.180Z,2.03
2023-02-19T14:38:57.924Z,4.18
2023-02-19T14:41:25.878Z,1.67
2023-02-19T14:43:56.360Z,2.40
2023-02-19T14:46:28.340Z,2.58
2023-02-19T14:48:57.994Z,3.10
2023-02-19T14:51:33.527Z,2.55
2023-02-19T14:54:09.322Z,3.50
2023-02-19T14:56:36.864Z,3.25
2023-02-19T14:59:22.299Z,1.60
2023-02-19T15:02:04.025Z,3.00
2023-02-19T15:04:36.237Z,5.18
2023-02-19T15:07:07.560Z,4.68
2023-02-19T15:09:39.970Z,3.05
2023-02-19T15:12:07.258Z,3.50
2023-02-19T15:14:34.628Z,2.40
2023-02-19T15:17:05.432Z,3.55
2023-02-19T15:19:39.584Z,4.38
2023-02-19T15:22:06.355Z,1.50
2023-02-19T15:24:33.056Z,4.18
2023-02-19T15:26:59.821Z,4.75
2023-02-19T15:29:27.766Z,2.30
2023-02-19T15:31:58.046Z,2.40
2023-02-19T15:34:27.530Z,3.40
2023-02-19T15:37:04.584Z,2.33
2023-02-19T15:39:37.821Z,4.55
2023-02-19T15:42:06.614Z,4.95
2023-02-19T15:44:37.443Z,2.83
2023-02-19T15:47:15.448Z,3.03
2023-02-19T15:49:51.407Z,1.45
2023-02-19T15:52:45.661Z,2.38
2023-02-19T15:55:28.931Z,1.60
2023-02-19T15:58:15.298Z,2.75
2023-02-19T16:00:48.455Z,2.80
2023-02-19T16:03:23.528Z,2.92
2023-02-19T16:06:11.243Z,1.83
2023-02-19T16:08:39.672Z,3.55
2023-02-19T16:11:22.785Z,3.40
2023-02-19T16:13:53.529Z,2.33
2023-02-19T16:16:29.814Z,3.85
2023-02-19T16:18:57.221Z,2.75
2023-02-19T16:21:26.928Z,2.40
2023-02-19T16:24:15.502Z,3.88
2023-02-19T16:26:43.689Z,5.13
2023-02-19T16:29:26.675Z,3.03
2023-02-19T16:31:57.869Z,1.88
2023-02-19T16:34:34.402Z,4.00
2023-02-19T16:37:02.976Z,1.33
2023-02-19T16:39:30.379Z,3.38
2023-02-19T16:42:00.142Z,1.98
2023-02-19T16:44:32.960Z,3.17
2023-02-19T16:47:20.182Z,3.85
2023-02-19T16:49:46.794Z,5.13
2023-02-19T16:52:15.798Z,3.03
2023-02-19T16:54:43.281Z,3.88
2023-02-19T16:57:10.012Z,2.13
2023-02-19T16:59:37.000Z,3.88
2023-02-19T17:02:06.152Z,4.22
2023-02-19T17:04:32.907Z,3.70
2023-02-19T17:06:59.650Z,4.05
2023-02-19T17:09:26.360Z,6.95
2023-02-19T17:11:53.042Z,3.15
2023-02-19T17:14:19.681Z,3.03
2023-02-19T17:16:47.030Z,2.22
2023-02-19T17:19:18.392Z,5.25
2023-02-19T17:21:46.674Z,3.55
2023-02-19T17:24:14.061Z,5.15
2023-02-19T17:26:40.925Z,5.78
2023-02-19T17:29:13.772Z,7.40
2023-02-19T17:31:40.699Z,10.98
2023-02-19T17:34:07.546Z,8.45
2023-02-19T17:36:34.457Z,6.75
2023-02-19T17:39:03.232Z,5.82
2023-02-19T17:41:29.984Z,4.00
2023-02-19T17:43:56.675Z,4.50
2023-02-19T17:46:25.842Z,3.75
2023-02-19T17:48:53.863Z,2.63
2023-02-19T17:51:21.047Z,2.85
2023-02-19T17:53:47.868Z,5.18
2023-02-19T17:56:23.325Z,3.75
2023-02-19T17:58:49.996Z,4.32
2023-02-19T18:01:16.959Z,4.55
2023-02-19T18:03:44.060Z,5.68
2023-02-19T18:06:11.327Z,2.08
2023-02-19T18:08:38.280Z,2.85
2023-02-19T18:11:07.193Z,2.42
2023-02-19T18:13:33.907Z,2.53
2023-02-19T18:16:00.568Z,4.68
2023-02-19T18:18:27.338Z,3.55
2023-02-19T18:20:53.985Z,4.57
2023-02-19T18:23:23.400Z,5.90
2023-02-19T18:25:50.317Z,6.63
2023-02-19T18:28:17.055Z,5.07
2023-02-19T18:30:43.821Z,2.95
2023-02-19T18:33:13.399Z,7.43
2023-02-19T18:35:40.162Z,4.82
2023-02-19T18:38:06.893Z,3.83
2023-02-19T18:40:33.553Z,3.55
2023-02-19T18:43:00.289Z,3.45
2023-02-19T18:45:27.607Z,5.25
2023-02-19T18:47:54.285Z,4.10
2023-02-19T18:50:20.896Z,4.75
2023-02-19T18:52:47.581Z,2.75
2023-02-19T18:55:14.315Z,3.42
2023-02-19T18:57:41.125Z,7.38
2023-02-19T19:00:08.716Z,7.93
2023-02-19T19:02:48.398Z,3.72
2023-02-19T19:05:23.489Z,2.80
2023-02-19T19:07:55.269Z,5.13
2023-02-19T19:10:22.808Z,5.72
2023-02-19T19:12:49.840Z,7.95
2023-02-19T19:15:18.437Z,3.83
2023-02-19T19:17:46.176Z,5.00
2023-02-19T19:20:13.356Z,5.38
2023-02-19T19:22:40.298Z,5.88
2023-02-19T19:25:08.606Z,4.63
2023-02-19T19:27:35.299Z,4.47
2023-02-19T19:30:02.603Z,5.53
2023-02-19T19:32:29.304Z,7.45
2023-02-19T19:34:56.032Z,5.72
2023-02-19T19:37:22.668Z,5.50
2023-02-19T19:39:49.367Z,5.40
2023-02-19T19:42:16.039Z,4.88
2023-02-19T19:44:45.525Z,4.68
2023-02-19T19:47:12.268Z,4.78
2023-02-19T19:49:40.807Z,6.18
2023-02-19T19:52:09.385Z,6.90
2023-02-19T19:54:36.032Z,5.03
2023-02-19T19:57:02.707Z,5.00
2023-02-19T19:59:29.521Z,5.18
2023-02-19T20:01:57.892Z,3.35
2023-02-19T20:04:25.893Z,3.10
2023-02-19T20:06:53.194Z,4.43
2023-02-19T20:09:20.536Z,6.40
2023-02-19T20:11:49.683Z,5.07
2023-02-19T20:14:18.024Z,5.95
2023-02-19T20:16:44.932Z,3.92
2023-02-19T20:19:12.128Z,5.22
2023-02-19T20:21:38.752Z,4.05
2023-02-19T20:24:05.971Z,3.53
2023-02-19T20:26:32.715Z,4.63
2023-02-19T20:28:59.455Z,4.60
2023-02-19T20:31:26.900Z,4.03
2023-02-19T20:33:53.702Z,4.22
2023-02-19T20:36:20.701Z,5.30
2023-02-19T20:38:49.462Z,5.78
2023-02-19T20:41:16.201Z,6.72
2023-02-19T20:43:42.977Z,6.72
2023-02-19T20:46:10.034Z,4.35
2023-02-19T20:48:37.059Z,5.38
2023-02-19T20:51:04.174Z,6.43
2023-02-19T20:53:31.906Z,4.80
2023-02-19T20:55:58.618Z,4.25
2023-02-19T20:58:26.061Z,6.85
2023-02-19T21:00:55.803Z,7.63
2023-02-19T21:03:22.524Z,5.95
2023-02-19T21:05:49.435Z,4.43
2023-02-19T21:08:17.363Z,5.15
2023-02-19T21:10:45.941Z,4.35
2023-02-19T21:13:13.441Z,4.65
2023-02-19T21:15:40.340Z,3.30
2023-02-19T21:18:07.152Z,6.45
2023-02-19T21:20:33.905Z,5.68
2023-02-19T21:23:01.187Z,7.60
2023-02-19T21:25:28.225Z,4.68
2023-02-19T21:27:54.928Z,8.38
2023-02-19T21:30:21.709Z,6.07
2023-02-19T21:32:48.456Z,5.80
2023-02-19T21:35:15.204Z,6.15
2023-02-19T21:37:43.354Z,7.88
2023-02-19T21:40:12.129Z,5.57
2023-02-19T21:42:38.793Z,5.43
2023-02-19T21:45:05.923Z,3.97
2023-02-19T21:47:32.680Z,5.55
2023-02-19T21:49:59.429Z,5.97
2023-02-19T21:52:26.979Z,6.88
2023-02-19T21:54:53.624Z,6.28
2023-02-19T21:57:20.339Z,8.77
2023-02-19T21:59:46.992Z,7.85
2023-02-19T22:02:13.665Z,5.55
2023-02-19T22:04:41.211Z,6.20
2023-02-19T22:07:07.921Z,7.80
2023-02-19T22:09:34.577Z,8.45
2023-02-19T22:12:01.252Z,6.18
2023-02-19T22:14:27.913Z,5.07
2023-02-19T22:16:54.574Z,7.20
2023-02-19T22:19:21.235Z,5.07
2023-02-19T22:21:48.014Z,3.97
2023-02-19T22:24:17.769Z,4.43
2023-02-19T22:26:45.670Z,5.22
2023-02-19T22:29:14.215Z,5.03
2023-02-19T22:31:41.198Z,5.95
2023-02-19T22:34:07.981Z,3.92
2023-02-19T22:36:37.249Z,7.78
2023-02-19T22:39:06.491Z,4.80
2023-02-19T22:41:33.416Z,4.75
2023-02-19T22:44:00.513Z,8.93
2023-02-19T22:46:29.809Z,6.43
2023-02-19T22:48:57.176Z,6.90
2023-02-19T22:51:24.556Z,6.70
2023-02-19T22:53:56.592Z,12.30
2023-02-19T22:56:25.436Z,8.48
2023-02-19T22:58:53.273Z,6.60
2023-02-19T23:01:20.682Z,4.75
2023-02-19T23:03:53.654Z,7.07
2023-02-19T23:06:26.245Z,6.10
2023-02-19T23:08:54.190Z,6.53
2023-02-19T23:11:26.050Z,5.13
2023-02-19T23:13:53.403Z,6.93
2023-02-19T23:16:20.210Z,4.57
2023-02-19T23:18:46.964Z,5.57
2023-02-19T23:21:14.162Z,4.10
2023-02-19T23:23:42.369Z,4.90
2023-02-19T23:26:09.611Z,6.03
2023-02-19T23:28:36.733Z,6.57
2023-02-19T23:31:03.520Z,5.28
2023-02-19T23:33:30.231Z,4.53
2023-02-19T23:35:56.889Z,4.57
2023-02-19T23:38:23.831Z,6.22
2023-02-19T23:40:50.637Z,5.57
2023-02-19T23:43:17.339Z,5.97
2023-02-19T23:45:44.579Z,6.68
2023-02-19T23:48:11.271Z,6.68
2023-02-19T23:50:37.968Z,5.32
2023-02-19T23:53:04.758Z,4.88
2023-02-19T23:55:31.434Z,6.03
2023-02-19T23:57:58.097Z,7.25
